Forks, Washington
Current Conditions -  °F | °C
As of 11:07 AM on Friday 31 Oct 2014 (Local Time) from KUIL Reporting Station
Haze Haze  
Wind Chill: 50°   Ceiling: 4900
Heat Index: 50°   Visibility: 5mi
Dew Point: 50°   Wind: 7mph
Humidity: 100%   Direction: 140°SE
Pressure: 29.79"   Gusts: NA
Location:  47.95°N, 124.39°W
Report Text: KUIL 311807Z AUTO 14006KT 5SM BR SCT003 OVC049 10/10 A2979 RMK AO2 T01000100
Loading
Personal Weather Stations






























Interactive Weather Map
Tropical Storm Tracking
New forecast layout! Learn more

10-Day Weather Forecast

Advertisements
Track Severe Weather on mobile